createdAt,value
2019-05-26T00:01:26.969Z,66.67
2019-05-26T00:07:09.852Z,48.35
2019-05-26T00:09:44.758Z,55.08
2019-05-26T00:12:05.756Z,54.60
2019-05-26T00:14:51.342Z,53.08
2019-05-26T00:17:30.341Z,39.85
2019-05-26T00:19:56.289Z,41.55
2019-05-26T00:22:13.403Z,44.90
2019-05-26T00:24:36.048Z,51.18
2019-05-26T00:26:51.627Z,47.00
2019-05-26T00:29:23.591Z,44.90
2019-05-26T00:31:59.008Z,51.58
2019-05-26T00:34:43.697Z,43.52
2019-05-26T00:37:07.981Z,42.78
2019-05-26T00:39:23.661Z,44.63
2019-05-26T00:41:45.492Z,43.80
2019-05-26T00:44:00.965Z,46.53
2019-05-26T00:46:46.138Z,44.80
2019-05-26T00:49:33.360Z,52.83
2019-05-26T00:52:13.487Z,54.15
2019-05-26T00:55:05.007Z,48.78
2019-05-26T00:57:37.932Z,50.65
2019-05-26T01:00:23.310Z,51.68
2019-05-26T01:03:04.583Z,46.55
2019-05-26T01:05:24.266Z,57.85
2019-05-26T01:08:12.402Z,50.85
2019-05-26T01:10:55.918Z,58.45
2019-05-26T01:13:14.178Z,53.60
2019-05-26T01:15:31.289Z,46.37
2019-05-26T01:20:37.069Z,59.08
2019-05-26T01:23:13.642Z,55.08
2019-05-26T01:25:33.204Z,57.25
2019-05-26T01:27:46.748Z,50.67
2019-05-26T01:30:09.997Z,55.48
2019-05-26T01:32:47.080Z,57.03
2019-05-26T01:34:57.131Z,51.18
2019-05-26T01:37:35.952Z,53.87
2019-05-26T01:39:51.123Z,51.68
2019-05-26T01:42:25.032Z,51.75
2019-05-26T01:45:12.048Z,56.10
2019-05-26T01:47:44.626Z,45.30
2019-05-26T01:50:12.390Z,47.27
2019-05-26T01:52:36.061Z,46.63
2019-05-26T01:55:09.763Z,57.15
2019-05-26T01:57:42.034Z,35.43
2019-05-26T02:00:17.378Z,36.63
2019-05-26T02:05:33.284Z,54.50
2019-05-26T02:08:02.492Z,41.98
2019-05-26T02:10:29.533Z,43.65
2019-05-26T02:12:44.496Z,37.05
2019-05-26T02:15:00.587Z,40.65
2019-05-26T02:17:19.856Z,28.47
2019-05-26T02:19:31.951Z,29.65
2019-05-26T02:22:07.088Z,25.32
2019-05-26T02:24:46.359Z,29.92
2019-05-26T02:27:33.852Z,24.25
2019-05-26T02:30:11.094Z,26.70
2019-05-26T02:32:37.059Z,28.25
2019-05-26T02:35:21.827Z,28.30
2019-05-26T02:37:47.341Z,30.50
2019-05-26T02:40:22.271Z,32.13
2019-05-26T02:45:51.490Z,44.67
2019-05-26T02:48:38.198Z,41.70
2019-05-26T02:53:45.373Z,49.45
2019-05-26T02:56:34.161Z,43.70
2019-05-26T02:59:20.477Z,52.90
2019-05-26T03:04:55.831Z,46.73
2019-05-26T03:07:23.791Z,48.68
2019-05-26T03:09:56.526Z,44.30
2019-05-26T03:12:42.078Z,40.33
2019-05-26T03:18:13.325Z,50.70
2019-05-26T03:20:30.745Z,50.52
2019-05-26T03:23:20.117Z,46.42
2019-05-26T03:26:04.265Z,42.45
2019-05-26T03:28:30.393Z,41.90
2019-05-26T03:31:10.447Z,45.48
2019-05-26T03:33:47.446Z,48.73
2019-05-26T03:36:27.377Z,46.05
2019-05-26T03:38:57.768Z,52.15
2019-05-26T03:41:45.204Z,52.17
2019-05-26T03:46:50.897Z,47.23
2019-05-26T03:49:02.074Z,47.75
2019-05-26T03:51:14.377Z,47.03
2019-05-26T03:53:31.192Z,52.80
2019-05-26T03:55:57.827Z,42.55
2019-05-26T03:58:38.695Z,41.02
2019-05-26T04:01:16.073Z,40.60
2019-05-26T04:03:35.967Z,43.95
2019-05-26T04:06:00.496Z,40.85
2019-05-26T04:08:19.824Z,41.08
2019-05-26T04:10:34.792Z,43.13
2019-05-26T04:13:05.626Z,54.50
2019-05-26T04:15:27.554Z,51.55
2019-05-26T04:17:42.722Z,44.05
2019-05-26T04:20:01.383Z,53.52
2019-05-26T04:22:41.032Z,48.48
2019-05-26T04:25:08.779Z,46.15
2019-05-26T04:27:45.875Z,46.13
2019-05-26T04:30:12.404Z,43.75
2019-05-26T04:32:26.447Z,43.87
2019-05-26T04:34:42.030Z,43.20
2019-05-26T04:36:57.194Z,37.73
2019-05-26T04:39:09.190Z,35.90
2019-05-26T04:41:49.354Z,37.65
2019-05-26T04:44:26.909Z,33.83
2019-05-26T04:46:51.941Z,33.80
2019-05-26T04:49:08.548Z,31.80
2019-05-26T04:51:24.225Z,31.75
2019-05-26T04:53:39.597Z,24.75
2019-05-26T04:55:57.635Z,21.33
2019-05-26T04:58:43.526Z,20.55
2019-05-26T05:01:28.697Z,31.37
2019-05-26T05:03:54.004Z,16.73
2019-05-26T05:08:42.776Z,14.68
2019-05-26T05:11:25.671Z,14.65
2019-05-26T05:13:52.133Z,16.80
2019-05-26T05:16:22.152Z,12.63
2019-05-26T05:18:47.770Z,12.70
2019-05-26T05:21:08.051Z,15.70
2019-05-26T05:24:01.526Z,11.33
2019-05-26T05:26:35.507Z,14.50
2019-05-26T05:29:06.370Z,11.57
2019-05-26T05:31:23.176Z,11.88
2019-05-26T05:33:46.127Z,11.30
2019-05-26T05:36:03.652Z,11.30
2019-05-26T05:38:28.858Z,6.08
2019-05-26T05:40:59.633Z,6.53
2019-05-26T05:43:17.323Z,6.85
2019-05-26T05:45:45.498Z,5.30
2019-05-26T05:48:08.144Z,9.95
2019-05-26T05:50:19.523Z,5.28
2019-05-26T05:52:41.255Z,7.95
2019-05-26T05:55:13.420Z,6.05
2019-05-26T05:57:44.661Z,6.30
2019-05-26T06:00:02.497Z,7.28
2019-05-26T06:02:33.022Z,5.78
2019-05-26T06:05:25.324Z,6.87
2019-05-26T06:08:02.928Z,7.03
2019-05-26T06:10:23.555Z,8.75
2019-05-26T06:13:09.755Z,7.58
2019-05-26T06:15:52.334Z,7.33
2019-05-26T06:18:23.210Z,9.33
2019-05-26T06:20:53.230Z,7.85
2019-05-26T06:23:29.177Z,8.13
2019-05-26T06:26:11.690Z,7.83
2019-05-26T06:28:58.293Z,5.08
2019-05-26T06:31:26.161Z,8.15
2019-05-26T06:33:55.156Z,11.50
2019-05-26T06:36:29.377Z,8.30
2019-05-26T06:39:07.380Z,10.10
2019-05-26T06:41:33.876Z,8.10
2019-05-26T06:44:06.798Z,7.87
2019-05-26T06:46:48.283Z,8.45
2019-05-26T06:49:26.494Z,12.88
2019-05-26T06:52:01.939Z,11.10
2019-05-26T06:54:30.011Z,8.60
2019-05-26T06:56:46.716Z,8.85
2019-05-26T06:59:22.984Z,8.88
2019-05-26T07:04:53.943Z,8.33
2019-05-26T07:07:15.152Z,9.50
2019-05-26T07:09:44.455Z,9.88
2019-05-26T07:12:41.199Z,11.20
2019-05-26T07:15:21.836Z,8.95
2019-05-26T07:17:47.279Z,9.35
2019-05-26T07:20:26.364Z,11.60
2019-05-26T07:23:13.944Z,9.55
2019-05-26T07:25:35.863Z,11.25
2019-05-26T07:28:13.256Z,10.00
2019-05-26T07:31:00.886Z,9.30
2019-05-26T07:33:53.370Z,7.80
2019-05-26T07:36:36.965Z,9.38
2019-05-26T07:39:25.067Z,5.87
2019-05-26T07:42:09.404Z,8.23
2019-05-26T07:44:17.975Z,7.53
2019-05-26T07:46:49.639Z,7.03
2019-05-26T07:49:22.182Z,8.23
2019-05-26T07:51:44.240Z,9.78
2019-05-26T07:53:56.313Z,8.00
2019-05-26T07:56:15.502Z,7.85
2019-05-26T07:58:50.435Z,7.50
2019-05-26T08:01:36.303Z,7.78
2019-05-26T08:04:15.048Z,7.50
2019-05-26T08:06:43.732Z,9.05
2019-05-26T08:09:12.623Z,8.23
2019-05-26T08:11:52.339Z,5.92
2019-05-26T08:14:38.247Z,8.45
2019-05-26T08:20:10.994Z,7.22
2019-05-26T08:22:39.205Z,8.45
2019-05-26T08:25:13.249Z,7.33
2019-05-26T08:28:04.387Z,6.78
2019-05-26T08:30:51.201Z,8.73
2019-05-26T08:33:05.523Z,7.17
2019-05-26T08:35:20.282Z,8.33
2019-05-26T08:37:57.541Z,8.33
2019-05-26T08:40:35.941Z,6.80
2019-05-26T08:43:01.198Z,10.13
2019-05-26T08:45:23.353Z,7.78
2019-05-26T08:48:01.912Z,7.58
2019-05-26T08:50:37.140Z,12.80
2019-05-26T08:53:03.412Z,7.10
2019-05-26T08:55:42.513Z,7.92
2019-05-26T08:58:13.464Z,8.00
2019-05-26T09:00:36.765Z,9.58
2019-05-26T09:03:24.680Z,8.85
2019-05-26T09:05:58.384Z,8.03
2019-05-26T09:08:37.313Z,9.20
2019-05-26T09:11:18.807Z,6.97
2019-05-26T09:13:59.159Z,10.30
2019-05-26T09:16:45.685Z,7.42
2019-05-26T09:19:25.204Z,6.05
2019-05-26T09:22:02.902Z,9.30
2019-05-26T09:24:39.268Z,6.35
2019-05-26T09:30:17.305Z,8.55
2019-05-26T09:33:08.203Z,8.35
2019-05-26T09:35:55.844Z,8.28
2019-05-26T09:38:42.894Z,6.85
2019-05-26T09:41:20.247Z,6.25
2019-05-26T09:43:56.197Z,7.05
2019-05-26T09:46:39.289Z,8.93
2019-05-26T09:49:23.749Z,6.95
2019-05-26T09:51:50.007Z,8.98
2019-05-26T09:54:05.278Z,7.17
2019-05-26T09:56:40.463Z,8.78
2019-05-26T09:59:17.983Z,11.55
2019-05-26T10:02:00.945Z,7.80
2019-05-26T10:04:19.584Z,8.18
2019-05-26T10:06:51.682Z,7.45
2019-05-26T10:09:32.113Z,7.58
2019-05-26T10:12:12.886Z,6.17
2019-05-26T10:14:39.315Z,7.30
2019-05-26T10:16:52.542Z,7.92
2019-05-26T10:19:28.409Z,8.50
2019-05-26T10:22:09.987Z,7.28
2019-05-26T10:24:58.025Z,7.17
2019-05-26T10:27:32.957Z,9.38
2019-05-26T10:29:58.161Z,8.65
2019-05-26T10:32:32.380Z,9.55
2019-05-26T10:37:49.821Z,8.38
2019-05-26T10:40:21.143Z,6.70
2019-05-26T10:42:46.991Z,9.30
2019-05-26T10:45:14.858Z,6.58
2019-05-26T10:47:31.462Z,9.45
2019-05-26T10:50:03.833Z,7.62
2019-05-26T10:52:35.176Z,7.75
2019-05-26T10:54:57.622Z,9.60
2019-05-26T10:57:13.406Z,7.60
2019-05-26T10:59:26.840Z,8.33
2019-05-26T11:05:05.345Z,6.92
2019-05-26T11:07:29.451Z,6.42
2019-05-26T11:09:44.826Z,6.28
2019-05-26T11:15:09.859Z,6.75
2019-05-26T11:17:35.775Z,5.90
2019-05-26T11:19:51.963Z,7.12
2019-05-26T11:22:31.710Z,7.80
2019-05-26T11:25:10.401Z,6.12
2019-05-26T11:28:11.142Z,8.10
2019-05-26T11:30:30.742Z,5.58
2019-05-26T11:33:06.289Z,6.22
2019-05-26T11:35:36.409Z,5.90
2019-05-26T11:38:19.229Z,8.90
2019-05-26T11:40:55.599Z,7.20
2019-05-26T11:43:53.299Z,6.97
2019-05-26T11:49:29.208Z,9.45
2019-05-26T11:51:54.036Z,5.45
2019-05-26T11:54:34.814Z,5.80
2019-05-26T11:56:59.086Z,6.47
2019-05-26T11:59:30.845Z,5.40
2019-05-26T12:01:55.029Z,5.85
2019-05-26T12:04:18.900Z,6.45
2019-05-26T12:07:08.378Z,7.30
2019-05-26T12:09:36.352Z,7.55
2019-05-26T12:12:09.506Z,5.97
2019-05-26T12:14:34.923Z,7.15
2019-05-26T12:17:01.847Z,4.53
2019-05-26T12:19:18.607Z,4.72
2019-05-26T12:21:44.486Z,5.78
2019-05-26T12:24:24.898Z,5.95
2019-05-26T12:27:04.509Z,6.30
2019-05-26T12:29:42.638Z,6.05
2019-05-26T12:32:27.290Z,5.00
2019-05-26T12:34:41.647Z,9.43
2019-05-26T12:36:56.197Z,5.70
2019-05-26T12:39:11.573Z,5.67
2019-05-26T12:41:26.432Z,6.50
2019-05-26T12:44:10.723Z,5.60
2019-05-26T12:46:41.419Z,6.70
2019-05-26T12:49:27.877Z,6.90
2019-05-26T12:51:53.743Z,5.35
2019-05-26T12:54:08.196Z,5.60
2019-05-26T12:56:49.998Z,6.53
2019-05-26T12:59:39.329Z,5.12
2019-05-26T13:02:02.211Z,4.72
2019-05-26T13:04:38.345Z,6.45
2019-05-26T13:07:32.732Z,4.58
2019-05-26T13:09:54.177Z,6.10
2019-05-26T13:12:08.322Z,5.95
2019-05-26T13:14:39.950Z,5.50
2019-05-26T13:17:27.050Z,6.92
2019-05-26T13:19:49.333Z,5.42
2019-05-26T13:22:25.705Z,6.95
2019-05-26T13:25:10.010Z,4.42
2019-05-26T13:27:55.099Z,4.80
2019-05-26T13:30:28.520Z,6.80
2019-05-26T13:33:07.447Z,5.05
2019-05-26T13:35:43.816Z,6.10
2019-05-26T13:38:40.767Z,4.42
2019-05-26T13:41:26.115Z,4.50
2019-05-26T13:46:58.946Z,6.08
2019-05-26T13:49:45.042Z,4.15
2019-05-26T13:52:22.537Z,4.90
2019-05-26T13:55:08.603Z,4.58
2019-05-26T13:57:40.899Z,6.30
2019-05-26T14:00:27.989Z,5.42
2019-05-26T14:02:54.556Z,5.70
2019-05-26T14:05:30.258Z,4.65
2019-05-26T14:08:10.768Z,4.40
2019-05-26T14:10:42.936Z,6.28
2019-05-26T14:13:15.004Z,4.70
2019-05-26T14:15:56.801Z,5.80
2019-05-26T14:18:42.387Z,5.83
2019-05-26T14:21:14.752Z,4.80
2019-05-26T14:23:58.152Z,4.90
2019-05-26T14:26:19.701Z,4.20
2019-05-26T14:29:02.593Z,5.85
2019-05-26T14:31:46.538Z,4.78
2019-05-26T14:34:30.418Z,3.52
2019-05-26T14:37:07.806Z,5.62
2019-05-26T14:39:56.559Z,3.77
2019-05-26T14:42:17.357Z,6.17
2019-05-26T14:44:49.005Z,4.12
2019-05-26T14:47:50.369Z,5.33
2019-05-26T14:50:18.233Z,3.77
2019-05-26T14:52:51.706Z,4.28
2019-05-26T14:58:35.101Z,7.65
2019-05-26T15:00:59.987Z,4.08
2019-05-26T15:03:12.693Z,4.35
2019-05-26T15:05:29.399Z,5.20
2019-05-26T15:07:46.620Z,4.35
2019-05-26T15:12:48.290Z,3.85
2019-05-26T15:15:24.662Z,4.58
2019-05-26T15:17:44.846Z,4.45
2019-05-26T15:20:25.515Z,3.62
2019-05-26T15:22:48.573Z,4.90
2019-05-26T15:25:20.807Z,2.90
2019-05-26T15:28:06.730Z,3.90
2019-05-26T15:30:49.621Z,5.28
2019-05-26T15:33:29.193Z,6.17
2019-05-26T15:36:06.797Z,4.87
2019-05-26T15:38:53.291Z,5.08
2019-05-26T15:41:32.317Z,5.17
2019-05-26T15:44:20.679Z,9.25
2019-05-26T15:47:02.871Z,4.70
2019-05-26T15:49:40.674Z,3.58
2019-05-26T15:52:15.194Z,5.90
2019-05-26T15:55:01.426Z,4.08
2019-05-26T15:57:23.829Z,4.60
2019-05-26T16:00:13.202Z,4.03
2019-05-26T16:02:48.655Z,3.60
2019-05-26T16:05:27.270Z,5.08
2019-05-26T16:08:11.007Z,4.20
2019-05-26T16:11:03.456Z,5.08
2019-05-26T16:13:46.169Z,4.28
2019-05-26T16:16:22.226Z,3.92
2019-05-26T16:19:00.023Z,6.53
2019-05-26T16:21:37.111Z,4.37
2019-05-26T16:24:26.900Z,5.75
2019-05-26T16:27:18.590Z,4.65
2019-05-26T16:29:51.603Z,5.40
2019-05-26T16:32:19.027Z,4.67
2019-05-26T16:35:10.553Z,4.53
2019-05-26T16:37:52.173Z,5.70
2019-05-26T16:40:12.879Z,4.53
2019-05-26T16:42:27.528Z,5.28
2019-05-26T16:44:41.283Z,4.90
2019-05-26T16:46:58.796Z,4.10
2019-05-26T16:49:17.235Z,6.72
2019-05-26T16:51:55.762Z,4.65
2019-05-26T16:54:07.242Z,4.55
2019-05-26T16:56:18.649Z,4.40
2019-05-26T16:58:31.638Z,7.05
2019-05-26T17:00:50.289Z,4.12
2019-05-26T17:03:03.001Z,6.20
2019-05-26T17:05:20.629Z,4.87
2019-05-26T17:07:38.256Z,4.28
2019-05-26T17:10:03.054Z,4.55
2019-05-26T17:12:21.087Z,6.65
2019-05-26T17:14:35.947Z,4.62
2019-05-26T17:16:49.478Z,7.22
2019-05-26T17:19:08.133Z,4.78
2019-05-26T17:21:37.328Z,5.80
2019-05-26T17:23:50.558Z,5.00
2019-05-26T17:26:07.464Z,5.15
2019-05-26T17:28:22.939Z,5.05
2019-05-26T17:30:35.453Z,11.73
2019-05-26T17:32:55.124Z,7.33
2019-05-26T17:35:10.500Z,6.80
2019-05-26T17:37:32.030Z,6.55
2019-05-26T17:39:43.715Z,6.60
2019-05-26T17:41:58.668Z,5.78
2019-05-26T17:44:11.492Z,5.97
2019-05-26T17:46:28.715Z,5.78
2019-05-26T17:48:44.584Z,5.45
2019-05-26T17:51:27.505Z,9.10
2019-05-26T17:53:54.199Z,5.58
2019-05-26T17:56:14.023Z,6.35
2019-05-26T17:58:25.310Z,6.40
2019-05-26T18:00:39.351Z,8.98
2019-05-26T18:03:13.355Z,6.53
2019-05-26T18:05:55.664Z,8.30
2019-05-26T18:11:26.858Z,5.85
2019-05-26T18:14:11.900Z,12.80
2019-05-26T18:16:49.085Z,6.20
2019-05-26T18:19:31.292Z,5.90
2019-05-26T18:22:11.956Z,6.90
2019-05-26T18:24:57.163Z,8.28
2019-05-26T18:27:17.936Z,8.15
2019-05-26T18:29:32.998Z,12.28
2019-05-26T18:31:50.573Z,20.65
2019-05-26T18:34:07.126Z,30.43
2019-05-26T18:36:27.523Z,39.53
2019-05-26T18:38:44.225Z,49.83
2019-05-26T18:41:18.950Z,58.50
2019-05-26T18:43:34.119Z,58.00
2019-05-26T18:46:11.922Z,54.75
2019-05-26T18:48:33.644Z,37.90
2019-05-26T18:50:47.584Z,46.85
2019-05-26T18:53:06.644Z,32.73
2019-05-26T18:55:29.596Z,31.02
2019-05-26T18:57:55.622Z,24.70
2019-05-26T19:00:16.116Z,25.65
2019-05-26T19:02:33.435Z,24.55
2019-05-26T19:04:46.664Z,23.30
2019-05-26T19:06:59.883Z,25.85
2019-05-26T19:09:15.057Z,23.95
2019-05-26T19:11:57.565Z,22.95
2019-05-26T19:14:28.095Z,18.30
2019-05-26T19:17:02.821Z,23.92
2019-05-26T19:19:35.199Z,39.35
2019-05-26T19:25:04.926Z,21.70
2019-05-26T19:27:33.101Z,19.85
2019-05-26T19:29:51.037Z,22.82
2019-05-26T19:32:13.802Z,19.45
2019-05-26T19:34:33.055Z,19.10
2019-05-26T19:37:14.024Z,18.80
2019-05-26T19:39:37.495Z,18.82
2019-05-26T19:41:53.686Z,19.60
2019-05-26T19:44:14.181Z,21.35
2019-05-26T19:46:30.482Z,20.32
2019-05-26T19:48:48.617Z,21.85
2019-05-26T19:51:06.244Z,18.73
2019-05-26T19:53:20.384Z,20.17
2019-05-26T19:55:36.171Z,16.35
2019-05-26T19:57:50.447Z,46.80
2019-05-26T20:00:04.979Z,62.55
2019-05-26T20:02:20.968Z,31.82
2019-05-26T20:04:39.112Z,29.90
2019-05-26T20:06:55.194Z,28.12
2019-05-26T20:09:10.975Z,24.43
2019-05-26T20:11:27.681Z,19.17
2019-05-26T20:13:41.414Z,19.07
2019-05-26T20:15:58.780Z,20.08
2019-05-26T20:18:15.646Z,23.20
2019-05-26T20:20:33.298Z,18.67
2019-05-26T20:23:03.292Z,32.10
2019-05-26T20:25:19.798Z,22.52
2019-05-26T20:27:37.120Z,21.10
2019-05-26T20:29:51.767Z,25.48
2019-05-26T20:32:08.270Z,21.62
2019-05-26T20:34:29.994Z,22.65
2019-05-26T20:36:46.802Z,24.55
2019-05-26T20:39:02.077Z,21.05
2019-05-26T20:41:14.786Z,22.80
2019-05-26T20:43:29.655Z,25.57
2019-05-26T20:45:48.092Z,24.98
2019-05-26T20:48:25.381Z,42.23
2019-05-26T20:51:08.848Z,63.78
2019-05-26T20:53:52.661Z,77.37
2019-05-26T20:56:15.204Z,61.28
2019-05-26T20:58:46.140Z,46.20
2019-05-26T21:01:16.538Z,71.60
2019-05-26T21:04:03.173Z,64.00
2019-05-26T21:06:24.484Z,64.97
2019-05-26T21:09:11.760Z,57.45
2019-05-26T21:11:46.130Z,25.02
2019-05-26T21:14:03.038Z,29.07
2019-05-26T21:16:19.436Z,26.68
2019-05-26T21:19:02.189Z,27.27
2019-05-26T21:24:43.051Z,33.08
2019-05-26T21:27:02.412Z,30.10
2019-05-26T21:29:14.392Z,40.90
2019-05-26T21:31:40.346Z,33.67
2019-05-26T21:34:10.729Z,35.60
2019-05-26T21:36:53.342Z,33.92
2019-05-26T21:39:21.343Z,31.85
2019-05-26T21:41:41.731Z,30.85
2019-05-26T21:44:17.763Z,31.52
2019-05-26T21:46:49.052Z,33.05
2019-05-26T21:49:05.640Z,33.98
2019-05-26T21:51:17.737Z,188.62
2019-05-26T21:53:56.973Z,38.58
2019-05-26T21:56:44.706Z,51.45
2019-05-26T21:59:20.768Z,35.00
2019-05-26T22:02:10.397Z,34.98
2019-05-26T22:04:57.703Z,34.55
2019-05-26T22:07:39.358Z,31.85
2019-05-26T22:10:12.910Z,36.13
2019-05-26T22:12:52.092Z,41.95
2019-05-26T22:18:06.679Z,44.60
2019-05-26T22:20:39.577Z,30.17
2019-05-26T22:23:27.385Z,35.52
2019-05-26T22:26:07.718Z,38.70
2019-05-26T22:31:22.258Z,43.83
2019-05-26T22:33:54.390Z,39.85
2019-05-26T22:36:10.789Z,47.15
2019-05-26T22:38:53.883Z,38.88
2019-05-26T22:41:16.764Z,44.53
2019-05-26T22:43:29.063Z,38.23
2019-05-26T22:46:13.249Z,40.45
2019-05-26T22:51:47.525Z,40.75
2019-05-26T22:54:13.884Z,38.45
2019-05-26T22:56:34.992Z,34.67
2019-05-26T22:59:22.294Z,41.92
2019-05-26T23:01:47.932Z,42.67
2019-05-26T23:04:04.534Z,40.55
2019-05-26T23:06:25.233Z,39.73
2019-05-26T23:12:05.383Z,42.45
2019-05-26T23:14:39.936Z,44.23
2019-05-26T23:17:24.391Z,43.68
2019-05-26T23:19:53.487Z,44.40
2019-05-26T23:22:14.849Z,42.60
2019-05-26T23:25:01.460Z,39.20
2019-05-26T23:27:26.919Z,34.10
2019-05-26T23:29:55.297Z,32.48
2019-05-26T23:32:38.211Z,39.23
2019-05-26T23:35:22.368Z,35.38
2019-05-26T23:41:02.955Z,42.30
2019-05-26T23:43:55.706Z,59.88
2019-05-26T23:46:39.316Z,46.98
2019-05-26T23:49:02.397Z,43.80
2019-05-26T23:54:40.393Z,47.53
2019-05-26T23:57:27.542Z,39.25
